sensor_id;sensor_type;location;lat;lon;timestamp;pressure;altitude;pressure_sealevel;temperature;humidity
14293;BME280;62290;59.420;17.842;2023-08-17T00:01:19;101687.44;;;25.11;48.71
14293;BME280;62290;59.420;17.842;2023-08-17T00:03:47;101721.06;;;25.29;49.14
14293;BME280;62290;59.420;17.842;2023-08-17T00:06:16;101725.63;;;25.29;48.68
14293;BME280;62290;59.420;17.842;2023-08-17T00:08:45;101723.03;;;25.27;48.87
14293;BME280;62290;59.420;17.842;2023-08-17T00:11:13;101717.88;;;25.24;48.78
14293;BME280;62290;59.420;17.842;2023-08-17T00:13:41;101718.75;;;25.25;49.22
14293;BME280;62290;59.420;17.842;2023-08-17T00:16:09;101722.53;;;25.22;48.95
14293;BME280;62290;59.420;17.842;2023-08-17T00:18:36;101720.84;;;25.21;49.39
14293;BME280;62290;59.420;17.842;2023-08-17T00:21:04;101719.97;;;25.21;49.37
14293;BME280;62290;59.420;17.842;2023-08-17T00:23:34;101727.06;;;25.22;49.35
14293;BME280;62290;59.420;17.842;2023-08-17T00:26:02;101725.47;;;25.19;49.13
14293;BME280;62290;59.420;17.842;2023-08-17T00:28:30;101723.78;;;25.18;49.45
14293;BME280;62290;59.420;17.842;2023-08-17T00:30:59;101726.47;;;25.18;49.53
14293;BME280;62290;59.420;17.842;2023-08-17T00:33:27;101730.13;;;25.17;49.50
14293;BME280;62290;59.420;17.842;2023-08-17T00:35:55;101730.13;;;25.17;49.04
14293;BME280;62290;59.420;17.842;2023-08-17T00:38:25;101725.72;;;25.16;49.42
14293;BME280;62290;59.420;17.842;2023-08-17T00:40:54;101728.31;;;25.17;49.00
14293;BME280;62290;59.420;17.842;2023-08-17T00:43:23;101725.84;;;25.14;49.47
14293;BME280;62290;59.420;17.842;2023-08-17T00:45:51;101729.50;;;25.13;49.01
14293;BME280;62290;59.420;17.842;2023-08-17T00:48:19;101733.22;;;25.12;49.19
14293;BME280;62290;59.420;17.842;2023-08-17T00:50:49;101732.34;;;25.12;49.23
14293;BME280;62290;59.420;17.842;2023-08-17T00:53:18;101731.72;;;25.08;49.52
14293;BME280;62290;59.420;17.842;2023-08-17T00:55:50;101737.75;;;25.12;49.43
14293;BME280;62290;59.420;17.842;2023-08-17T00:58:23;101736.88;;;25.11;49.42
14293;BME280;62290;59.420;17.842;2023-08-17T01:00:51;101733.44;;;25.09;49.39
14293;BME280;62290;59.420;17.842;2023-08-17T01:03:20;101731.59;;;25.10;49.41
14293;BME280;62290;59.420;17.842;2023-08-17T01:05:49;101738.97;;;25.08;49.05
14293;BME280;62290;59.420;17.842;2023-08-17T01:08:17;101739.81;;;25.08;49.60
14293;BME280;62290;59.420;17.842;2023-08-17T01:10:51;101741.53;;;25.09;49.54
14293;BME280;62290;59.420;17.842;2023-08-17T01:13:25;101742.63;;;25.07;49.16
14293;BME280;62290;59.420;17.842;2023-08-17T01:16:02;101747.16;;;25.06;49.23
14293;BME280;62290;59.420;17.842;2023-08-17T01:18:34;101750.97;;;25.04;49.68
14293;BME280;62290;59.420;17.842;2023-08-17T01:21:05;101737.69;;;25.01;49.86
14293;BME280;62290;59.420;17.842;2023-08-17T01:23:35;101760.88;;;25.03;49.43
14293;BME280;62290;59.420;17.842;2023-08-17T01:26:03;101750.47;;;24.99;49.59
14293;BME280;62290;59.420;17.842;2023-08-17T01:28:31;101767.28;;;25.02;49.81
14293;BME280;62290;59.420;17.842;2023-08-17T01:31:04;101769.97;;;25.02;49.88
14293;BME280;62290;59.420;17.842;2023-08-17T01:33:35;101768.25;;;25.01;49.56
14293;BME280;62290;59.420;17.842;2023-08-17T01:36:11;101770.94;;;25.01;49.49
14293;BME280;62290;59.420;17.842;2023-08-17T01:38:43;101778.16;;;25.01;49.39
14293;BME280;62290;59.420;17.842;2023-08-17T01:41:12;101773.13;;;24.96;49.53
14293;BME280;62290;59.420;17.842;2023-08-17T01:43:43;101771.91;;;25.00;49.68
14293;BME280;62290;59.420;17.842;2023-08-17T01:46:15;101776.47;;;25.00;49.62
14293;BME280;62290;59.420;17.842;2023-08-17T01:48:44;101773.75;;;25.00;49.83
14293;BME280;62290;59.420;17.842;2023-08-17T01:51:17;101779.91;;;25.02;49.92
14293;BME280;62290;59.420;17.842;2023-08-17T01:53:47;101776.31;;;25.01;49.80
14293;BME280;62290;59.420;17.842;2023-08-17T01:56:15;101783.56;;;25.01;49.56
14293;BME280;62290;59.420;17.842;2023-08-17T01:58:44;101781.72;;;25.01;49.71
14293;BME280;62290;59.420;17.842;2023-08-17T02:01:12;101783.56;;;25.01;49.83
14293;BME280;62290;59.420;17.842;2023-08-17T02:03:40;101793.47;;;25.00;49.72
14293;BME280;62290;59.420;17.842;2023-08-17T02:06:09;101788.09;;;25.00;49.43
14293;BME280;62290;59.420;17.842;2023-08-17T02:08:37;101792.63;;;25.00;49.55
14293;BME280;62290;59.420;17.842;2023-08-17T02:11:07;101789.94;;;25.00;49.92
14293;BME280;62290;59.420;17.842;2023-08-17T02:13:37;101796.31;;;24.99;49.58
14293;BME280;62290;59.420;17.842;2023-08-17T02:16:06;101802.66;;;24.98;49.60
14293;BME280;62290;59.420;17.842;2023-08-17T02:18:34;101799.97;;;24.98;49.52
14293;BME280;62290;59.420;17.842;2023-08-17T02:21:02;101802.78;;;24.96;49.96
14293;BME280;62290;59.420;17.842;2023-08-17T02:23:30;101801.19;;;24.94;49.65
14293;BME280;62290;59.420;17.842;2023-08-17T02:25:58;101802.06;;;24.94;49.98
14293;BME280;62290;59.420;17.842;2023-08-17T02:28:28;101802.06;;;24.94;50.01
14293;BME280;62290;59.420;17.842;2023-08-17T02:30:56;101800.56;;;24.90;50.17
14293;BME280;62290;59.420;17.842;2023-08-17T02:33:27;101810.38;;;24.91;50.05
14293;BME280;62290;59.420;17.842;2023-08-17T02:35:55;101814.91;;;24.91;50.11
14293;BME280;62290;59.420;17.842;2023-08-17T02:38:23;101803.38;;;24.89;50.07
14293;BME280;62290;59.420;17.842;2023-08-17T02:40:51;101824.09;;;24.88;50.22
14293;BME280;62290;59.420;17.842;2023-08-17T02:43:19;101825.06;;;24.87;49.74
14293;BME280;62290;59.420;17.842;2023-08-17T02:45:48;101832.41;;;24.85;49.87
14293;BME280;62290;59.420;17.842;2023-08-17T02:48:16;101835.09;;;24.85;50.25
14293;BME280;62290;59.420;17.842;2023-08-17T02:50:44;101840.50;;;24.85;49.99
14293;BME280;62290;59.420;17.842;2023-08-17T02:53:12;101842.31;;;24.85;49.87
14293;BME280;62290;59.420;17.842;2023-08-17T02:55:40;101838.78;;;24.84;49.82
14293;BME280;62290;59.420;17.842;2023-08-17T02:58:09;101844.28;;;24.83;49.95
14293;BME280;62290;59.420;17.842;2023-08-17T03:00:36;101853.97;;;24.85;49.95
14293;BME280;62290;59.420;17.842;2023-08-17T03:03:06;101843.19;;;24.85;50.04
14293;BME280;62290;59.420;17.842;2023-08-17T03:05:34;101845.88;;;24.85;50.39
14293;BME280;62290;59.420;17.842;2023-08-17T03:08:03;101851.41;;;24.84;50.07
14293;BME280;62290;59.420;17.842;2023-08-17T03:10:31;101856.66;;;24.85;49.93
14293;BME280;62290;59.420;17.842;2023-08-17T03:12:59;101855.06;;;24.83;50.36
14293;BME280;62290;59.420;17.842;2023-08-17T03:15:27;101862.19;;;24.84;50.04
14293;BME280;62290;59.420;17.842;2023-08-17T03:17:56;101858.50;;;24.85;50.17
14293;BME280;62290;59.420;17.842;2023-08-17T03:20:27;101855.81;;;24.85;50.16
14293;BME280;62290;59.420;17.842;2023-08-17T03:22:56;101857.66;;;24.84;50.00
14293;BME280;62290;59.420;17.842;2023-08-17T03:25:24;101862.28;;;24.82;50.44
14293;BME280;62290;59.420;17.842;2023-08-17T03:27:53;101872.34;;;24.80;50.53
14293;BME280;62290;59.420;17.842;2023-08-17T03:30:21;101861.97;;;24.74;50.64
14293;BME280;62290;59.420;17.842;2023-08-17T03:32:49;101883.03;;;24.82;50.44
14293;BME280;62290;59.420;17.842;2023-08-17T03:35:17;101877.63;;;24.82;50.14
14293;BME280;62290;59.420;17.842;2023-08-17T03:37:47;101882.16;;;24.81;50.54
14293;BME280;62290;59.420;17.842;2023-08-17T03:40:15;101885.81;;;24.80;50.51
14293;BME280;62290;59.420;17.842;2023-08-17T03:42:43;101883.97;;;24.81;50.68
14293;BME280;62290;59.420;17.842;2023-08-17T03:45:12;101893.91;;;24.80;50.72
14293;BME280;62290;59.420;17.842;2023-08-17T03:47:40;101897.59;;;24.79;50.25
14293;BME280;62290;59.420;17.842;2023-08-17T03:50:09;101903.81;;;24.80;50.27
14293;BME280;62290;59.420;17.842;2023-08-17T03:52:37;101906.50;;;24.80;50.67
14293;BME280;62290;59.420;17.842;2023-08-17T03:55:07;101898.34;;;24.81;50.47
14293;BME280;62290;59.420;17.842;2023-08-17T03:57:35;101907.38;;;24.80;50.69
14293;BME280;62290;59.420;17.842;2023-08-17T04:00:06;101903.72;;;24.81;50.63
14293;BME280;62290;59.420;17.842;2023-08-17T04:02:39;101900.03;;;24.82;50.74
14293;BME280;62290;59.420;17.842;2023-08-17T04:05:10;101902.84;;;24.81;50.54
14293;BME280;62290;59.420;17.842;2023-08-17T04:07:38;101901.03;;;24.81;50.21
14293;BME280;62290;59.420;17.842;2023-08-17T04:10:08;101900.16;;;24.81;49.96
14293;BME280;62290;59.420;17.842;2023-08-17T04:12:36;101902.63;;;24.84;49.92
14293;BME280;62290;59.420;17.842;2023-08-17T04:15:05;101902.63;;;24.84;50.09
14293;BME280;62290;59.420;17.842;2023-08-17T04:17:33;101908.78;;;24.86;50.01
14293;BME280;62290;59.420;17.842;2023-08-17T04:20:03;101912.22;;;24.88;50.27
14293;BME280;62290;59.420;17.842;2023-08-17T04:22:31;101913.72;;;24.92;49.71
14293;BME280;62290;59.420;17.842;2023-08-17T04:24:59;101918.75;;;24.96;50.10
14293;BME280;62290;59.420;17.842;2023-08-17T04:27:29;101919.28;;;25.01;49.70
14293;BME280;62290;59.420;17.842;2023-08-17T04:29:57;101916.22;;;25.06;49.44
14293;BME280;62290;59.420;17.842;2023-08-17T04:32:26;101923.00;;;25.11;49.44
14293;BME280;62290;59.420;17.842;2023-08-17T04:34:55;101920.81;;;25.16;49.26
14293;BME280;62290;59.420;17.842;2023-08-17T04:37:23;101925.03;;;25.21;49.13
14293;BME280;62290;59.420;17.842;2023-08-17T04:39:51;101932.63;;;25.27;49.33
14293;BME280;62290;59.420;17.842;2023-08-17T04:42:21;101928.75;;;25.31;48.95
14293;BME280;62290;59.420;17.842;2023-08-17T04:44:50;101932.81;;;25.36;48.69
14293;BME280;62290;59.420;17.842;2023-08-17T04:47:18;101932.69;;;25.38;48.69
14293;BME280;62290;59.420;17.842;2023-08-17T04:49:46;101925.09;;;25.43;48.65
14293;BME280;62290;59.420;17.842;2023-08-17T04:52:14;101935.91;;;25.43;48.24
14293;BME280;62290;59.420;17.842;2023-08-17T04:54:42;101930.50;;;25.43;48.70
14293;BME280;62290;59.420;17.842;2023-08-17T04:57:10;101929.63;;;25.42;48.48
14293;BME280;62290;59.420;17.842;2023-08-17T04:59:38;101935.28;;;25.39;48.49
14293;BME280;62290;59.420;17.842;2023-08-17T05:02:08;101936.38;;;25.37;48.14
14293;BME280;62290;59.420;17.842;2023-08-17T05:04:38;101941.00;;;25.35;48.61
14293;BME280;62290;59.420;17.842;2023-08-17T05:07:08;101934.00;;;25.32;48.12
14293;BME280;62290;59.420;17.842;2023-08-17T05:09:36;101948.72;;;25.28;48.67
14293;BME280;62290;59.420;17.842;2023-08-17T05:12:06;101943.69;;;25.24;48.11
14293;BME280;62290;59.420;17.842;2023-08-17T05:14:36;101951.13;;;25.20;48.25
14293;BME280;62290;59.420;17.842;2023-08-17T05:17:04;101946.84;;;25.17;48.67
14293;BME280;62290;59.420;17.842;2023-08-17T05:19:33;101947.56;;;25.20;48.40
14293;BME280;62290;59.420;17.842;2023-08-17T05:22:02;101952.22;;;25.17;48.36
14293;BME280;62290;59.420;17.842;2023-08-17T05:24:30;101951.38;;;25.17;49.15
14293;BME280;62290;59.420;17.842;2023-08-17T05:26:58;101959.59;;;25.15;50.11
14293;BME280;62290;59.420;17.842;2023-08-17T05:29:26;101962.28;;;25.15;50.92
14293;BME280;62290;59.420;17.842;2023-08-17T05:31:54;101957.84;;;25.14;51.14
14293;BME280;62290;59.420;17.842;2023-08-17T05:34:23;101962.50;;;25.12;51.70
14293;BME280;62290;59.420;17.842;2023-08-17T05:36:52;101974.16;;;25.13;51.20
14293;BME280;62290;59.420;17.842;2023-08-17T05:39:20;101986.78;;;25.12;50.86
14293;BME280;62290;59.420;17.842;2023-08-17T05:41:48;101978.69;;;25.12;50.72
14293;BME280;62290;59.420;17.842;2023-08-17T05:44:17;101986.78;;;25.12;50.64
14293;BME280;62290;59.420;17.842;2023-08-17T05:46:45;101987.66;;;25.13;50.25
14293;BME280;62290;59.420;17.842;2023-08-17T05:49:14;101985.06;;;25.11;50.15
14293;BME280;62290;59.420;17.842;2023-08-17T05:51:42;101993.13;;;25.11;49.87
14293;BME280;62290;59.420;17.842;2023-08-17T05:54:11;101988.75;;;25.10;49.53
14293;BME280;62290;59.420;17.842;2023-08-17T05:56:40;102002.97;;;25.12;48.91
14293;BME280;62290;59.420;17.842;2023-08-17T05:59:11;101998.53;;;25.11;48.67
14293;BME280;62290;59.420;17.842;2023-08-17T06:01:40;102002.09;;;25.12;48.38
14293;BME280;62290;59.420;17.842;2023-08-17T06:04:08;101990.91;;;25.05;48.25
14293;BME280;62290;59.420;17.842;2023-08-17T06:06:36;101994.97;;;25.11;48.29
14293;BME280;62290;59.420;17.842;2023-08-17T06:09:04;102008.16;;;25.15;48.52
14293;BME280;62290;59.420;17.842;2023-08-17T06:11:35;101991.88;;;25.04;47.90
14293;BME280;62290;59.420;17.842;2023-08-17T06:14:03;102009.97;;;25.15;48.04
14293;BME280;62290;59.420;17.842;2023-08-17T06:16:32;102011.69;;;25.16;47.74
14293;BME280;62290;59.420;17.842;2023-08-17T06:19:00;102009.22;;;25.13;47.39
14293;BME280;62290;59.420;17.842;2023-08-17T06:21:28;102028.63;;;25.18;47.74
14293;BME280;62290;59.420;17.842;2023-08-17T06:23:56;102034.88;;;25.18;47.28
14293;BME280;62290;59.420;17.842;2023-08-17T06:26:24;102034.03;;;25.18;47.28
14293;BME280;62290;59.420;17.842;2023-08-17T06:28:54;102035.75;;;25.19;47.26
14293;BME280;62290;59.420;17.842;2023-08-17T06:31:22;102036.81;;;25.16;46.89
14293;BME280;62290;59.420;17.842;2023-08-17T06:33:54;102047.53;;;25.18;47.20
14293;BME280;62290;59.420;17.842;2023-08-17T06:36:22;102054.63;;;25.19;47.07
14293;BME280;62290;59.420;17.842;2023-08-17T06:38:50;102061.84;;;25.18;46.75
14293;BME280;62290;59.420;17.842;2023-08-17T06:41:19;102056.44;;;25.18;46.57
14293;BME280;62290;59.420;17.842;2023-08-17T06:43:47;102046.22;;;25.11;46.68
14293;BME280;62290;59.420;17.842;2023-08-17T06:46:17;102051.06;;;25.18;46.58
14293;BME280;62290;59.420;17.842;2023-08-17T06:48:45;102062.84;;;25.17;46.60
14293;BME280;62290;59.420;17.842;2023-08-17T06:51:13;102059.28;;;25.17;46.16
14293;BME280;62290;59.420;17.842;2023-08-17T06:53:41;102059.28;;;25.17;46.18
14293;BME280;62290;59.420;17.842;2023-08-17T06:56:09;102062.09;;;25.15;46.16
14293;BME280;62290;59.420;17.842;2023-08-17T06:58:37;102054.84;;;25.16;46.39
14293;BME280;62290;59.420;17.842;2023-08-17T07:01:05;102061.09;;;25.16;46.42
14293;BME280;62290;59.420;17.842;2023-08-17T07:03:35;102058.41;;;25.16;46.07
14293;BME280;62290;59.420;17.842;2023-08-17T07:06:03;102059.41;;;25.15;45.94
14293;BME280;62290;59.420;17.842;2023-08-17T07:08:31;102056.06;;;25.12;46.24
14293;BME280;62290;59.420;17.842;2023-08-17T07:10:59;102071.16;;;25.14;46.10
14293;BME280;62290;59.420;17.842;2023-08-17T07:13:27;102065.75;;;25.14;45.73
14293;BME280;62290;59.420;17.842;2023-08-17T07:15:56;102068.34;;;25.16;45.70
14293;BME280;62290;59.420;17.842;2023-08-17T07:18:24;102066.63;;;25.15;46.06
14293;BME280;62290;59.420;17.842;2023-08-17T07:20:55;102073.00;;;25.14;46.20
14293;BME280;62290;59.420;17.842;2023-08-17T07:23:25;102077.50;;;25.13;46.17
14293;BME280;62290;59.420;17.842;2023-08-17T07:25:53;102074.06;;;25.11;46.09
14293;BME280;62290;59.420;17.842;2023-08-17T07:28:21;102072.25;;;25.12;45.90
14293;BME280;62290;59.420;17.842;2023-08-17T07:30:49;102065.97;;;25.11;46.05
14293;BME280;62290;59.420;17.842;2023-08-17T07:33:17;102073.97;;;25.13;45.65
14293;BME280;62290;59.420;17.842;2023-08-17T07:35:45;102066.72;;;25.13;45.72
14293;BME280;62290;59.420;17.842;2023-08-17T07:38:15;102086.38;;;25.15;45.64
14293;BME280;62290;59.420;17.842;2023-08-17T07:40:43;102082.69;;;25.16;45.88
14293;BME280;62290;59.420;17.842;2023-08-17T07:43:11;102073.63;;;25.17;45.47
14293;BME280;62290;59.420;17.842;2023-08-17T07:45:39;102080.66;;;25.20;45.77
14293;BME280;62290;59.420;17.842;2023-08-17T07:48:07;102073.50;;;25.19;45.29
14293;BME280;62290;59.420;17.842;2023-08-17T07:50:35;102081.28;;;25.24;45.69
14293;BME280;62290;59.420;17.842;2023-08-17T07:53:03;102087.66;;;25.23;45.62
14293;BME280;62290;59.420;17.842;2023-08-17T07:55:33;102090.22;;;25.24;45.65
14293;BME280;62290;59.420;17.842;2023-08-17T07:58:06;102085.69;;;25.25;45.34
14293;BME280;62290;59.420;17.842;2023-08-17T08:00:34;102087.66;;;25.23;45.51
14293;BME280;62290;59.420;17.842;2023-08-17T08:03:03;102089.91;;;25.29;45.48
14293;BME280;62290;59.420;17.842;2023-08-17T08:05:31;102090.75;;;25.29;45.33
14293;BME280;62290;59.420;17.842;2023-08-17T08:07:59;102095.94;;;25.32;45.38
14293;BME280;62290;59.420;17.842;2023-08-17T08:10:28;102098.53;;;25.34;45.30
14293;BME280;62290;59.420;17.842;2023-08-17T08:12:57;102093.00;;;25.35;45.26
14293;BME280;62290;59.420;17.842;2023-08-17T08:15:25;102091.19;;;25.36;45.31
14293;BME280;62290;59.420;17.842;2023-08-17T08:17:53;102101.75;;;25.39;44.92
14293;BME280;62290;59.420;17.842;2023-08-17T08:20:21;102106.06;;;25.41;44.78
14293;BME280;62290;59.420;17.842;2023-08-17T08:22:49;102106.81;;;25.43;44.82
14293;BME280;62290;59.420;17.842;2023-08-17T08:25:17;102114.72;;;25.46;44.72
14293;BME280;62290;59.420;17.842;2023-08-17T08:27:45;102114.50;;;25.49;44.49
14293;BME280;62290;59.420;17.842;2023-08-17T08:30:15;102112.63;;;25.50;44.89
14293;BME280;62290;59.420;17.842;2023-08-17T08:32:43;102123.34;;;25.51;44.66
14293;BME280;62290;59.420;17.842;2023-08-17T08:35:12;102107.78;;;25.42;44.33
14293;BME280;62290;59.420;17.842;2023-08-17T08:37:40;102124.22;;;25.52;44.33
14293;BME280;62290;59.420;17.842;2023-08-17T08:40:11;102130.22;;;25.55;44.77
14293;BME280;62290;59.420;17.842;2023-08-17T08:42:39;102068.13;;;25.19;44.19
14293;BME280;62290;59.420;17.842;2023-08-17T08:45:08;102132.81;;;25.57;44.74
14293;BME280;62290;59.420;17.842;2023-08-17T08:47:39;102132.81;;;25.57;44.53
14293;BME280;62290;59.420;17.842;2023-08-17T08:50:16;102138.97;;;25.59;44.54
14293;BME280;62290;59.420;17.842;2023-08-17T08:52:50;102139.94;;;25.58;44.56
14293;BME280;62290;59.420;17.842;2023-08-17T08:55:23;102140.78;;;25.58;44.56
14293;BME280;62290;59.420;17.842;2023-08-17T08:57:54;102136.72;;;25.53;44.12
14293;BME280;62290;59.420;17.842;2023-08-17T09:00:24;102145.81;;;25.52;44.25
14293;BME280;62290;59.420;17.842;2023-08-17T09:02:55;102141.88;;;25.56;44.25
14293;BME280;62290;59.420;17.842;2023-08-17T09:05:25;102147.28;;;25.56;44.27
14293;BME280;62290;59.420;17.842;2023-08-17T09:07:53;102148.16;;;25.56;44.41
14293;BME280;62290;59.420;17.842;2023-08-17T09:10:22;102148.16;;;25.56;44.11
14293;BME280;62290;59.420;17.842;2023-08-17T09:12:50;102148.28;;;25.55;44.11
14293;BME280;62290;59.420;17.842;2023-08-17T09:15:18;102151.81;;;25.55;43.94
14293;BME280;62290;59.420;17.842;2023-08-17T09:17:46;102154.63;;;25.54;44.09
14293;BME280;62290;59.420;17.842;2023-08-17T09:20:35;102149.13;;;25.55;44.34
14293;BME280;62290;59.420;17.842;2023-08-17T09:23:04;102163.63;;;25.54;44.16
14293;BME280;62290;59.420;17.842;2023-08-17T09:25:32;102159.16;;;25.53;44.35
14293;BME280;62290;59.420;17.842;2023-08-17T09:28:06;102160.91;;;25.54;44.12
14293;BME280;62290;59.420;17.842;2023-08-17T09:30:52;102155.22;;;25.46;44.25
14293;BME280;62290;59.420;17.842;2023-08-17T09:33:22;102159.16;;;25.53;44.47
14293;BME280;62290;59.420;17.842;2023-08-17T09:35:52;102161.00;;;25.53;44.01
14293;BME280;62290;59.420;17.842;2023-08-17T09:38:24;102163.69;;;25.53;44.20
14293;BME280;62290;59.420;17.842;2023-08-17T09:40:53;102138.66;;;25.38;44.21
14293;BME280;62290;59.420;17.842;2023-08-17T09:43:21;102161.00;;;25.53;44.39
14293;BME280;62290;59.420;17.842;2023-08-17T09:45:49;102158.31;;;25.53;44.35
14293;BME280;62290;59.420;17.842;2023-08-17T09:48:18;102154.88;;;25.51;44.49
14293;BME280;62290;59.420;17.842;2023-08-17T09:50:47;102166.19;;;25.56;44.23
14293;BME280;62290;59.420;17.842;2023-08-17T09:53:18;102161.78;;;25.55;44.77
14293;BME280;62290;59.420;17.842;2023-08-17T09:55:46;102165.44;;;25.54;44.33
14293;BME280;62290;59.420;17.842;2023-08-17T09:58:14;102162.88;;;25.52;44.25
14293;BME280;62290;59.420;17.842;2023-08-17T10:00:44;102167.06;;;25.56;44.61
14293;BME280;62290;59.420;17.842;2023-08-17T10:03:19;102167.91;;;25.57;44.67
14293;BME280;62290;59.420;17.842;2023-08-17T10:05:52;102161.53;;;25.58;44.51
14293;BME280;62290;59.420;17.842;2023-08-17T10:08:23;102169.22;;;25.51;44.28
14293;BME280;62290;59.420;17.842;2023-08-17T10:10:52;102170.72;;;25.55;44.75
14293;BME280;62290;59.420;17.842;2023-08-17T10:13:27;102169.00;;;25.54;44.24
14293;BME280;62290;59.420;17.842;2023-08-17T10:16:02;102170.84;;;25.54;44.50
14293;BME280;62290;59.420;17.842;2023-08-17T10:18:38;102179.06;;;25.52;44.78
14293;BME280;62290;59.420;17.842;2023-08-17T10:21:13;102181.84;;;25.51;44.49
14293;BME280;62290;59.420;17.842;2023-08-17T10:23:47;102189.09;;;25.50;44.88
14293;BME280;62290;59.420;17.842;2023-08-17T10:26:19;102189.22;;;25.49;44.88
14293;BME280;62290;59.420;17.842;2023-08-17T10:28:48;102180.38;;;25.47;44.67
14293;BME280;62290;59.420;17.842;2023-08-17T10:31:16;102181.22;;;25.47;44.87
14293;BME280;62290;59.420;17.842;2023-08-17T10:33:45;102182.06;;;25.48;44.92
14293;BME280;62290;59.420;17.842;2023-08-17T10:36:14;102182.06;;;25.48;44.72
14293;BME280;62290;59.420;17.842;2023-08-17T10:38:43;102179.38;;;25.48;45.13
14293;BME280;62290;59.420;17.842;2023-08-17T10:41:14;102185.66;;;25.48;45.06
14293;BME280;62290;59.420;17.842;2023-08-17T10:43:54;102189.22;;;25.49;44.90
14293;BME280;62290;59.420;17.842;2023-08-17T10:46:32;102179.91;;;25.40;44.88
14293;BME280;62290;59.420;17.842;2023-08-17T10:49:03;102193.75;;;25.48;45.27
14293;BME280;62290;59.420;17.842;2023-08-17T10:51:32;102193.75;;;25.48;45.19
14293;BME280;62290;59.420;17.842;2023-08-17T10:54:03;102203.66;;;25.48;45.22
14293;BME280;62290;59.420;17.842;2023-08-17T10:56:32;102200.00;;;25.49;45.04
14293;BME280;62290;59.420;17.842;2023-08-17T10:59:01;102205.41;;;25.49;45.25
14293;BME280;62290;59.420;17.842;2023-08-17T11:01:33;102197.19;;;25.50;44.73
14293;BME280;62290;59.420;17.842;2023-08-17T11:04:15;102201.72;;;25.50;45.15
14293;BME280;62290;59.420;17.842;2023-08-17T11:06:44;102205.41;;;25.49;44.69
14293;BME280;62290;59.420;17.842;2023-08-17T11:09:16;102194.06;;;25.44;45.10
14293;BME280;62290;59.420;17.842;2023-08-17T11:11:53;102179.03;;;25.40;45.04
14293;BME280;62290;59.420;17.842;2023-08-17T11:14:21;102194.59;;;25.49;44.99
14293;BME280;62290;59.420;17.842;2023-08-17T11:16:49;102205.50;;;25.47;44.76
14293;BME280;62290;59.420;17.842;2023-08-17T11:19:18;102199.31;;;25.45;44.53
14293;BME280;62290;59.420;17.842;2023-08-17T11:21:46;102193.88;;;25.47;44.45
14293;BME280;62290;59.420;17.842;2023-08-17T11:24:14;102202.81;;;25.47;44.25
14293;BME280;62290;59.420;17.842;2023-08-17T11:26:42;102189.44;;;25.46;44.46
14293;BME280;62290;59.420;17.842;2023-08-17T11:29:12;102194.81;;;25.46;44.10
14293;BME280;62290;59.420;17.842;2023-08-17T11:31:40;102194.91;;;25.44;44.11
14293;BME280;62290;59.420;17.842;2023-08-17T11:34:14;102197.53;;;25.46;44.66
14293;BME280;62290;59.420;17.842;2023-08-17T11:36:42;102199.44;;;25.44;44.35
14293;BME280;62290;59.420;17.842;2023-08-17T11:39:10;102196.75;;;25.44;44.66
14293;BME280;62290;59.420;17.842;2023-08-17T11:41:39;102199.53;;;25.42;44.68
14293;BME280;62290;59.420;17.842;2023-08-17T11:44:07;102196.84;;;25.42;44.28
14293;BME280;62290;59.420;17.842;2023-08-17T11:46:38;102197.84;;;25.41;44.20
14293;BME280;62290;59.420;17.842;2023-08-17T11:49:06;102198.91;;;25.39;44.04
14293;BME280;62290;59.420;17.842;2023-08-17T11:51:34;102203.44;;;25.38;44.16
14293;BME280;62290;59.420;17.842;2023-08-17T11:54:02;102198.91;;;25.39;43.89
14293;BME280;62290;59.420;17.842;2023-08-17T11:56:31;102202.56;;;25.38;44.10
14293;BME280;62290;59.420;17.842;2023-08-17T11:59:08;102185.44;;;25.26;44.36
14293;BME280;62290;59.420;17.842;2023-08-17T12:01:39;102203.31;;;25.40;43.93
14293;BME280;62290;59.420;17.842;2023-08-17T12:04:07;102210.47;;;25.41;44.38
14293;BME280;62290;59.420;17.842;2023-08-17T12:06:41;102214.03;;;25.41;44.24
14293;BME280;62290;59.420;17.842;2023-08-17T12:09:10;102223.00;;;25.42;43.86
14293;BME280;62290;59.420;17.842;2023-08-17T12:11:39;102227.41;;;25.43;44.29
14293;BME280;62290;59.420;17.842;2023-08-17T12:14:09;102228.25;;;25.43;44.04
14293;BME280;62290;59.420;17.842;2023-08-17T12:16:46;102226.53;;;25.42;43.67
14293;BME280;62290;59.420;17.842;2023-08-17T12:19:15;102230.84;;;25.45;43.64
14293;BME280;62290;59.420;17.842;2023-08-17T12:21:43;102230.00;;;25.44;43.85
14293;BME280;62290;59.420;17.842;2023-08-17T12:24:11;102228.16;;;25.45;43.59
14293;BME280;62290;59.420;17.842;2023-08-17T12:26:41;102226.44;;;25.44;43.82
14293;BME280;62290;59.420;17.842;2023-08-17T12:29:10;102218.34;;;25.44;43.98
14293;BME280;62290;59.420;17.842;2023-08-17T12:31:38;102214.66;;;25.45;43.74
14293;BME280;62290;59.420;17.842;2023-08-17T12:34:08;102217.28;;;25.46;43.54
14293;BME280;62290;59.420;17.842;2023-08-17T12:36:36;102227.22;;;25.46;44.01
14293;BME280;62290;59.420;17.842;2023-08-17T12:39:04;102225.38;;;25.46;43.89
14293;BME280;62290;59.420;17.842;2023-08-17T12:41:33;102220.00;;;25.46;43.79
14293;BME280;62290;59.420;17.842;2023-08-17T12:44:01;102230.78;;;25.46;43.56
14293;BME280;62290;59.420;17.842;2023-08-17T12:46:29;102225.38;;;25.46;43.36
14293;BME280;62290;59.420;17.842;2023-08-17T12:48:59;102216.41;;;25.46;42.91
14293;BME280;62290;59.420;17.842;2023-08-17T12:51:29;102212.81;;;25.45;42.39